Time;durP1;ratioP1;P1;durP2;ratioP2;P2;SDS_P1;SDS_P2;PMS_P1;PMS_P2;Temp;Humidity;BMP_temperature;BMP_pressure;BME280_temperature;BME280_humidity;BME280_pressure;Samples;Min_cycle;Max_cycle;Signal;HPM_P1;HPM_P2
2022/04/17 00:02:05;;;;;;;18.77;14.70;;;;;;;;;;5058122;28;20490;-85
2022/04/17 00:04:52;;;;;;;10.32;8.18;;;;;;;;;;5057887;28;20049;-83
2022/04/17 00:07:38;;;;;;;15.82;13.50;;;;;;;;;;5058171;28;20037;-84
2022/04/17 00:10:23;;;;;;;19.08;12.57;;;;;;;;;;5057589;28;20049;-84
2022/04/17 00:13:08;;;;;;;15.90;10.70;;;;;;;;;;5057820;28;20045;-83
2022/04/17 00:15:54;;;;;;;18.55;15.38;;;;;;;;;;5057829;28;20478;-84
2022/04/17 00:18:40;;;;;;;19.30;11.27;;;;;;;;;;5057952;28;20506;-83
2022/04/17 00:21:25;;;;;;;16.20;13.65;;;;;;;;;;5057697;28;20045;-82
2022/04/17 00:24:12;;;;;;;13.73;9.65;;;;;;;;;;5058629;28;20044;-84
2022/04/17 00:26:59;;;;;;;20.23;15.65;;;;;;;;;;5059284;28;20041;-83
2022/04/17 00:29:45;;;;;;;11.00;9.30;;;;;;;;;;5065074;28;20053;-85
2022/04/17 00:32:31;;;;;;;45.20;21.40;;;;;;;;;;5057775;28;20045;-86
2022/04/17 00:35:17;;;;;;;137.48;74.95;;;;;;;;;;5055803;28;20044;-85
2022/04/17 00:38:04;;;;;;;10.52;8.45;;;;;;;;;;5055397;28;20053;-84
2022/04/17 00:40:51;;;;;;;15.75;8.18;;;;;;;;;;5055773;28;20041;-84
2022/04/17 00:43:45;;;;;;;11.55;6.47;;;;;;;;;;5055545;28;20040;-85
2022/04/17 00:46:30;;;;;;;17.27;7.43;;;;;;;;;;5055518;28;20052;-86
2022/04/17 00:49:16;;;;;;;11.93;5.82;;;;;;;;;;5055192;28;20041;-84
2022/04/17 00:52:04;;;;;;;15.98;6.95;;;;;;;;;;5054867;28;20045;-83
2022/04/17 00:54:52;;;;;;;9.32;6.35;;;;;;;;;;5054553;28;20045;-84
2022/04/17 00:57:37;;;;;;;56.72;22.73;;;;;;;;;;5054421;28;20041;-84
2022/04/17 01:00:23;;;;;;;17.40;9.63;;;;;;;;;;5055499;28;20057;-84
2022/04/17 01:03:12;;;;;;;21.45;11.93;;;;;;;;;;5074008;28;20037;-82
2022/04/17 01:05:59;;;;;;;19.80;13.55;;;;;;;;;;5077683;28;20071;-84
2022/04/17 01:08:44;;;;;;;21.88;11.40;;;;;;;;;;5066459;28;20041;-82
2022/04/17 01:11:30;;;;;;;16.00;8.80;;;;;;;;;;5056204;28;20049;-83
2022/04/17 01:14:15;;;;;;;21.80;12.80;;;;;;;;;;5056705;28;20482;-83
2022/04/17 01:17:02;;;;;;;18.38;11.38;;;;;;;;;;5056045;28;20049;-84
2022/04/17 01:19:47;;;;;;;21.08;11.55;;;;;;;;;;5055984;28;20037;-84
2022/04/17 01:22:32;;;;;;;25.23;11.25;;;;;;;;;;5056017;28;20048;-83
2022/04/17 01:28:21;;;;;;;21.58;12.63;;;;;;;;;;5056024;28;20053;-84
2022/04/17 01:31:06;;;;;;;26.25;9.13;;;;;;;;;;5055838;28;20041;-84
2022/04/17 01:33:51;;;;;;;19.42;10.30;;;;;;;;;;5056215;28;20056;-84
2022/04/17 01:36:37;;;;;;;19.27;10.05;;;;;;;;;;5056650;28;20045;-84
2022/04/17 01:39:23;;;;;;;20.17;10.55;;;;;;;;;;5059625;28;20439;-82
2022/04/17 01:42:11;;;;;;;14.27;8.45;;;;;;;;;;5058279;28;20041;-85
2022/04/17 01:44:56;;;;;;;15.50;10.70;;;;;;;;;;5055894;28;20041;-83
2022/04/17 01:47:41;;;;;;;32.88;7.18;;;;;;;;;;5055402;28;20049;-84
2022/04/17 01:50:30;;;;;;;18.02;7.80;;;;;;;;;;5056226;28;20390;-84
2022/04/17 01:53:15;;;;;;;16.45;10.68;;;;;;;;;;5055828;28;20041;-84
2022/04/17 01:56:01;;;;;;;14.38;6.30;;;;;;;;;;5055615;28;20473;-83
2022/04/17 01:58:47;;;;;;;7.57;4.82;;;;;;;;;;5061193;28;20040;-83
2022/04/17 02:01:34;;;;;;;13.88;8.25;;;;;;;;;;5055578;28;20041;-83
2022/04/17 02:04:20;;;;;;;13.90;6.20;;;;;;;;;;5055479;28;20041;-85
2022/04/17 02:07:06;;;;;;;17.23;9.43;;;;;;;;;;5055525;28;20037;-85
2022/04/17 02:09:51;;;;;;;18.95;9.70;;;;;;;;;;5055519;28;20041;-85
2022/04/17 02:12:37;;;;;;;7.40;5.13;;;;;;;;;;5055486;28;20482;-84
2022/04/17 02:15:22;;;;;;;12.13;6.18;;;;;;;;;;5055491;28;20048;-83
2022/04/17 02:18:08;;;;;;;13.18;7.90;;;;;;;;;;5055531;28;20048;-84
2022/04/17 02:20:53;;;;;;;24.98;8.18;;;;;;;;;;5054998;28;20402;-84
2022/04/17 02:23:44;;;;;;;15.15;8.10;;;;;;;;;;5054420;28;20041;-83
2022/04/17 02:26:30;;;;;;;8.95;6.53;;;;;;;;;;5055277;28;20422;-82
2022/04/17 02:29:15;;;;;;;14.93;6.65;;;;;;;;;;5054656;28;20406;-84
2022/04/17 02:32:01;;;;;;;7.78;6.10;;;;;;;;;;5055374;28;20045;-83
2022/04/17 02:34:46;;;;;;;6.40;5.10;;;;;;;;;;5055002;28;20044;-83
2022/04/17 02:37:36;;;;;;;6.25;3.95;;;;;;;;;;5055171;28;20045;-84
2022/04/17 02:40:22;;;;;;;5.68;4.18;;;;;;;;;;5055212;28;20502;-83
2022/04/17 02:43:07;;;;;;;5.72;2.88;;;;;;;;;;5054791;28;20045;-82
2022/04/17 02:45:53;;;;;;;9.57;3.95;;;;;;;;;;5054998;28;20045;-83
2022/04/17 02:48:38;;;;;;;7.45;3.83;;;;;;;;;;5054715;28;20037;-84
2022/04/17 02:51:23;;;;;;;8.07;3.67;;;;;;;;;;5060351;28;20045;-85
2022/04/17 02:54:09;;;;;;;3.35;2.70;;;;;;;;;;5054597;28;20037;-82
2022/04/17 02:56:54;;;;;;;8.82;4.15;;;;;;;;;;5055100;28;20478;-83
2022/04/17 02:59:39;;;;;;;6.60;4.45;;;;;;;;;;5054700;28;20045;-85
2022/04/17 03:05:36;;;;;;;4.38;3.30;;;;;;;;;;5054792;28;20049;-85
2022/04/17 03:08:22;;;;;;;6.40;3.90;;;;;;;;;;5057055;28;20029;-84
2022/04/17 03:11:09;;;;;;;4.35;3.40;;;;;;;;;;5062525;28;20041;-85
2022/04/17 03:13:54;;;;;;;5.85;3.05;;;;;;;;;;5060347;28;20053;-84
2022/04/17 03:16:40;;;;;;;2.47;2.25;;;;;;;;;;5067859;28;20021;-85
2022/04/17 03:19:25;;;;;;;6.45;2.88;;;;;;;;;;5077377;28;20041;-84
2022/04/17 03:22:11;;;;;;;8.40;4.05;;;;;;;;;;5069647;28;20037;-84
2022/04/17 03:24:57;;;;;;;11.73;4.30;;;;;;;;;;5053999;28;20049;-84
2022/04/17 03:27:46;;;;;;;9.93;3.97;;;;;;;;;;5053541;28;20406;-84
2022/04/17 03:30:31;;;;;;;15.00;4.15;;;;;;;;;;5054137;28;20037;-84
2022/04/17 03:33:16;;;;;;;10.00;4.30;;;;;;;;;;5055006;28;20037;-83
2022/04/17 03:36:01;;;;;;;7.28;4.85;;;;;;;;;;5060841;28;20040;-83
2022/04/17 03:38:46;;;;;;;11.30;4.63;;;;;;;;;;5060808;28;20044;-85
2022/04/17 03:41:33;;;;;;;6.97;5.05;;;;;;;;;;5061258;28;20045;-85
2022/04/17 03:44:19;;;;;;;5.28;3.70;;;;;;;;;;5060598;28;20413;-85
2022/04/17 03:47:06;;;;;;;9.02;4.50;;;;;;;;;;5059960;28;20044;-84
2022/04/17 03:49:51;;;;;;;7.63;5.38;;;;;;;;;;5060370;28;20037;-85
2022/04/17 03:52:43;;;;;;;11.45;5.78;;;;;;;;;;5061021;28;20045;-85
2022/04/17 03:55:29;;;;;;;8.43;3.40;;;;;;;;;;5061283;28;20053;-84
2022/04/17 03:58:15;;;;;;;10.00;3.92;;;;;;;;;;5066452;28;20041;-85
2022/04/17 04:01:00;;;;;;;5.45;3.83;;;;;;;;;;5061346;28;20071;-83
2022/04/17 04:03:47;;;;;;;6.57;3.38;;;;;;;;;;5060570;28;20049;-81
2022/04/17 04:06:33;;;;;;;3.80;2.53;;;;;;;;;;5060931;28;20045;-85
2022/04/17 04:09:19;;;;;;;8.05;3.03;;;;;;;;;;5060749;28;20037;-85
2022/04/17 04:12:05;;;;;;;3.38;2.50;;;;;;;;;;5060951;28;20044;-85
2022/04/17 04:14:51;;;;;;;9.65;3.53;;;;;;;;;;5061898;28;20053;-83
2022/04/17 04:17:36;;;;;;;2.22;1.88;;;;;;;;;;5059799;28;20486;-85
2022/04/17 04:20:21;;;;;;;2.90;2.38;;;;;;;;;;5060610;28;20398;-85
2022/04/17 04:23:08;;;;;;;4.18;2.80;;;;;;;;;;5061346;28;20042;-84
2022/04/17 04:25:54;;;;;;;2.95;2.50;;;;;;;;;;5062123;28;20041;-84
2022/04/17 04:28:39;;;;;;;5.90;2.65;;;;;;;;;;5061794;28;20045;-84
2022/04/17 04:31:25;;;;;;;3.33;2.60;;;;;;;;;;5061220;28;20045;-84
2022/04/17 04:34:11;;;;;;;3.28;2.35;;;;;;;;;;5060798;28;20045;-86
2022/04/17 04:36:57;;;;;;;3.70;2.50;;;;;;;;;;5066830;28;20045;-83
2022/04/17 04:39:43;;;;;;;4.63;2.60;;;;;;;;;;5060665;28;20045;-86
2022/04/17 04:42:28;;;;;;;2.38;2.10;;;;;;;;;;5060987;28;20490;-83
2022/04/17 04:49:29;;;;;;;5.43;3.53;;;;;;;;;;5056831;28;20045;-83
2022/04/17 04:51:25;;;;;;;4.68;3.05;;;;;;;;;;5054844;28;20044;-83
2022/04/17 04:54:12;;;;;;;5.90;3.22;;;;;;;;;;5054814;28;20056;-85
2022/04/17 04:56:58;;;;;;;3.42;2.92;;;;;;;;;;5057241;28;20082;-84
2022/04/17 04:59:44;;;;;;;6.22;3.88;;;;;;;;;;5055711;28;20049;-84
2022/04/17 05:02:29;;;;;;;6.90;3.13;;;;;;;;;;5062523;28;20048;-83
2022/04/17 05:05:15;;;;;;;3.88;2.85;;;;;;;;;;5057099;28;20044;-82
2022/04/17 05:08:00;;;;;;;10.30;4.20;;;;;;;;;;5061003;28;20049;-81
2022/04/17 05:10:47;;;;;;;4.05;2.75;;;;;;;;;;5056128;28;20467;-83
2022/04/17 05:13:34;;;;;;;8.80;5.40;;;;;;;;;;5057873;28;20467;-85
2022/04/17 05:16:19;;;;;;;6.80;2.60;;;;;;;;;;5049815;28;20041;-85
2022/04/17 05:19:27;;;;;;;6.28;3.40;;;;;;;;;;5064783;28;20052;-83
2022/04/17 05:22:16;;;;;;;4.95;2.63;;;;;;;;;;5056395;28;20052;-82
2022/04/17 05:25:02;;;;;;;5.47;2.88;;;;;;;;;;5056866;28;20045;-83
2022/04/17 05:27:47;;;;;;;10.52;4.97;;;;;;;;;;5055705;28;20045;-83
2022/04/17 05:30:33;;;;;;;15.80;7.15;;;;;;;;;;5073201;28;20040;-83
2022/04/17 05:33:21;;;;;;;10.65;5.13;;;;;;;;;;5082684;28;20045;-84
2022/04/17 05:36:06;;;;;;;11.25;5.15;;;;;;;;;;5066268;28;20061;-84
2022/04/17 05:38:53;;;;;;;20.10;9.60;;;;;;;;;;5057164;28;20482;-83
2022/04/17 05:41:39;;;;;;;6.15;4.05;;;;;;;;;;5059278;28;20044;-82
2022/04/17 05:44:24;;;;;;;3.63;2.60;;;;;;;;;;5057475;28;20033;-83
2022/04/17 05:47:09;;;;;;;6.90;2.40;;;;;;;;;;5057151;28;20148;-82
2022/04/17 05:49:55;;;;;;;6.38;3.47;;;;;;;;;;5056122;28;20040;-82
2022/04/17 05:52:41;;;;;;;2.67;1.98;;;;;;;;;;5058017;28;20045;-88
2022/04/17 05:55:27;;;;;;;3.90;2.38;;;;;;;;;;5055677;28;20049;-84
2022/04/17 05:58:13;;;;;;;2.35;1.90;;;;;;;;;;5055849;28;20061;-83
2022/04/17 06:01:01;;;;;;;6.97;3.33;;;;;;;;;;5056545;28;20041;-82
2022/04/17 06:03:47;;;;;;;11.68;6.80;;;;;;;;;;5056542;28;20037;-83
2022/04/17 06:06:32;;;;;;;116.55;60.25;;;;;;;;;;5063825;28;20048;-85
2022/04/17 06:09:18;;;;;;;285.58;146.45;;;;;;;;;;5056040;28;20048;-83
2022/04/17 06:12:04;;;;;;;508.13;255.20;;;;;;;;;;5055335;28;20393;-85
2022/04/17 06:14:49;;;;;;;38.83;16.48;;;;;;;;;;5056881;28;20033;-83
2022/04/17 06:17:37;;;;;;;739.25;426.20;;;;;;;;;;5061731;28;20041;-83
2022/04/17 06:20:23;;;;;;;342.33;203.40;;;;;;;;;;5057526;28;20045;-84
2022/04/17 06:23:08;;;;;;;24.08;14.65;;;;;;;;;;5055437;28;20394;-85
2022/04/17 06:25:53;;;;;;;8.57;5.63;;;;;;;;;;5057005;28;20490;-84
2022/04/17 06:28:39;;;;;;;9.88;5.97;;;;;;;;;;5056037;28;20395;-85
2022/04/17 06:31:25;;;;;;;7.85;5.90;;;;;;;;;;5056225;28;20049;-85
2022/04/17 06:34:11;;;;;;;11.07;4.22;;;;;;;;;;5056256;28;20041;-83
2022/04/17 06:36:56;;;;;;;6.65;4.00;;;;;;;;;;5057103;28;20041;-85
2022/04/17 06:39:42;;;;;;;6.47;3.70;;;;;;;;;;5056979;28;20045;-85
2022/04/17 06:42:27;;;;;;;3.05;2.45;;;;;;;;;;5062317;28;20048;-86
2022/04/17 06:45:13;;;;;;;10.43;7.13;;;;;;;;;;5056102;28;20049;-84
2022/04/17 06:48:21;;;;;;;7.13;4.80;;;;;;;;;;5056903;28;20045;-85
2022/04/17 06:51:05;;;;;;;6.20;4.07;;;;;;;;;;5056942;28;20053;-84
2022/04/17 06:53:51;;;;;;;8.77;3.67;;;;;;;;;;5063248;28;20395;-83
2022/04/17 06:56:36;;;;;;;4.82;3.08;;;;;;;;;;5060696;28;20048;-84
2022/04/17 06:59:21;;;;;;;4.72;3.08;;;;;;;;;;5054407;28;20045;-82
2022/04/17 07:02:06;;;;;;;4.00;2.90;;;;;;;;;;5053803;28;20044;-84
2022/04/17 07:04:52;;;;;;;6.22;3.53;;;;;;;;;;5053570;28;20048;-84
2022/04/17 07:07:38;;;;;;;5.32;3.67;;;;;;;;;;5053719;28;20037;-84
2022/04/17 07:10:23;;;;;;;5.47;2.78;;;;;;;;;;5054729;28;20124;-85
2022/04/17 07:13:18;;;;;;;5.63;3.00;;;;;;;;;;5053865;28;20056;-85
2022/04/17 07:16:03;;;;;;;20.37;9.10;;;;;;;;;;5060047;28;20053;-83
2022/04/17 07:18:48;;;;;;;7.75;5.20;;;;;;;;;;5053971;28;20041;-82
2022/04/17 07:21:34;;;;;;;9.32;5.22;;;;;;;;;;5054550;28;20045;-83
2022/04/17 07:24:19;;;;;;;6.32;3.80;;;;;;;;;;5054979;28;20041;-84
2022/04/17 07:27:04;;;;;;;6.70;4.03;;;;;;;;;;5053703;28;20482;-84
2022/04/17 07:29:50;;;;;;;9.45;5.35;;;;;;;;;;5054069;28;20482;-83
2022/04/17 07:32:36;;;;;;;9.02;4.95;;;;;;;;;;5055309;28;20044;-84
2022/04/17 07:35:24;;;;;;;13.38;7.60;;;;;;;;;;5054815;28;20049;-83
2022/04/17 07:38:10;;;;;;;11.57;6.10;;;;;;;;;;5056479;28;20037;-82
2022/04/17 07:40:55;;;;;;;6.97;3.42;;;;;;;;;;5061221;28;20068;-84
2022/04/17 07:43:41;;;;;;;5.85;3.40;;;;;;;;;;5069770;28;20041;-82
2022/04/17 07:46:27;;;;;;;5.88;4.15;;;;;;;;;;5075814;28;20049;-84
2022/04/17 07:49:12;;;;;;;6.63;3.70;;;;;;;;;;5078236;28;20053;-81
2022/04/17 07:51:58;;;;;;;4.60;2.22;;;;;;;;;;5073793;28;20037;-82
2022/04/17 07:54:44;;;;;;;8.18;4.93;;;;;;;;;;5074106;28;20045;-84
2022/04/17 08:00:59;;;;;;;2.75;2.30;;;;;;;;;;4992471;28;20054;-82
2022/04/17 08:06:30;;;;;;;5.78;3.58;;;;;;;;;;5047780;28;20390;-79
2022/04/17 08:09:16;;;;;;;7.20;3.40;;;;;;;;;;5054255;28;20041;-78
2022/04/17 08:12:02;;;;;;;4.18;2.80;;;;;;;;;;5061238;28;20482;-77
2022/04/17 08:14:47;;;;;;;5.88;3.47;;;;;;;;;;5054659;28;20057;-77
2022/04/17 08:17:32;;;;;;;7.85;4.40;;;;;;;;;;5060582;28;20041;-76
2022/04/17 08:20:17;;;;;;;3.40;2.83;;;;;;;;;;5061916;28;20041;-77
2022/04/17 08:23:03;;;;;;;9.15;5.25;;;;;;;;;;5058788;28;20048;-79
2022/04/17 08:25:50;;;;;;;4.53;3.38;;;;;;;;;;5057177;28;20390;-76
2022/04/17 08:28:35;;;;;;;7.68;4.50;;;;;;;;;;5059554;28;20041;-77
2022/04/17 08:31:20;;;;;;;8.35;4.45;;;;;;;;;;5064921;28;20041;-77
2022/04/17 08:34:06;;;;;;;9.60;5.03;;;;;;;;;;5064436;28;20045;-77
2022/04/17 08:36:52;;;;;;;11.32;4.28;;;;;;;;;;5064953;28;20053;-78
2022/04/17 08:39:38;;;;;;;5.50;3.95;;;;;;;;;;5058046;28;20053;-79
2022/04/17 08:42:25;;;;;;;3.58;2.50;;;;;;;;;;5056727;28;20041;-78
2022/04/17 08:45:11;;;;;;;3.80;2.80;;;;;;;;;;5056677;28;20049;-78
2022/04/17 08:47:57;;;;;;;5.63;3.92;;;;;;;;;;5056773;28;20510;-80
2022/04/17 08:50:42;;;;;;;4.18;2.60;;;;;;;;;;5063029;28;20037;-79
2022/04/17 08:53:30;;;;;;;6.80;4.07;;;;;;;;;;5056785;28;20482;-78
2022/04/17 08:56:16;;;;;;;5.05;3.80;;;;;;;;;;5056327;28;20041;-79
2022/04/17 08:59:01;;;;;;;6.15;3.80;;;;;;;;;;5056257;28;20040;-78
2022/04/17 09:01:46;;;;;;;4.68;3.72;;;;;;;;;;5056829;28;20040;-78
2022/04/17 09:04:32;;;;;;;5.00;3.38;;;;;;;;;;5063325;28;20044;-78
2022/04/17 09:07:17;;;;;;;5.45;3.53;;;;;;;;;;5055929;28;20490;-80
2022/04/17 09:10:03;;;;;;;4.70;2.97;;;;;;;;;;5056606;28;20049;-78
2022/04/17 09:12:52;;;;;;;11.55;4.65;;;;;;;;;;5056219;28;20395;-78
2022/04/17 09:15:37;;;;;;;9.40;4.05;;;;;;;;;;5055724;28;20048;-78
2022/04/17 09:18:26;;;;;;;6.20;3.65;;;;;;;;;;5062720;28;20045;-78
2022/04/17 09:21:28;;;;;;;15.18;7.22;;;;;;;;;;5055659;28;20041;-78
2022/04/17 09:24:16;;;;;;;17.58;8.30;;;;;;;;;;5055723;28;20037;-78
2022/04/17 09:27:01;;;;;;;4.97;3.53;;;;;;;;;;5055466;28;20049;-79
2022/04/17 09:29:47;;;;;;;5.07;3.53;;;;;;;;;;5056036;28;20037;-76
2022/04/17 09:32:32;;;;;;;8.45;4.40;;;;;;;;;;5055777;28;20045;-76
2022/04/17 09:35:23;;;;;;;6.45;3.67;;;;;;;;;;5054602;28;20045;-77
2022/04/17 09:38:12;;;;;;;11.95;6.30;;;;;;;;;;5055853;28;20049;-76
2022/04/17 09:41:10;;;;;;;7.25;4.82;;;;;;;;;;5055688;28;20041;-76
2022/04/17 09:43:59;;;;;;;4.63;3.58;;;;;;;;;;5056086;28;20037;-77
2022/04/17 09:46:56;;;;;;;5.45;3.42;;;;;;;;;;5061099;28;20049;-76
2022/04/17 09:50:12;;;;;;;4.68;3.45;;;;;;;;;;5055661;28;20045;-79
2022/04/17 09:53:06;;;;;;;5.55;3.88;;;;;;;;;;5056010;28;20053;-76
2022/04/17 09:56:11;;;;;;;3.63;2.72;;;;;;;;;;5060994;28;20033;-77
2022/04/17 09:58:57;;;;;;;5.22;3.42;;;;;;;;;;5073445;28;20041;-75
2022/04/17 10:01:49;;;;;;;9.85;4.95;;;;;;;;;;5065083;28;20044;-77
2022/04/17 10:04:39;;;;;;;5.05;3.38;;;;;;;;;;5055371;28;20049;-76
2022/04/17 10:07:28;;;;;;;4.60;3.20;;;;;;;;;;5054508;28;20048;-74
2022/04/17 10:10:15;;;;;;;7.78;3.42;;;;;;;;;;5054247;28;20052;-76
2022/04/17 10:13:02;;;;;;;6.70;4.45;;;;;;;;;;5060820;28;20041;-75
2022/04/17 10:15:49;;;;;;;6.43;4.28;;;;;;;;;;5054061;28;20048;-76
2022/04/17 10:18:40;;;;;;;5.70;3.83;;;;;;;;;;5054271;28;20045;-76
2022/04/17 10:21:28;;;;;;;6.35;3.17;;;;;;;;;;5054254;28;20041;-76
2022/04/17 10:24:19;;;;;;;5.75;4.03;;;;;;;;;;5054807;28;20398;-75
2022/04/17 10:27:06;;;;;;;4.53;3.30;;;;;;;;;;5053808;28;20056;-77
2022/04/17 10:30:04;;;;;;;4.20;2.95;;;;;;;;;;5060896;28;20053;-77
2022/04/17 10:33:40;;;;;;;6.00;3.90;;;;;;;;;;5054565;28;20053;-76
2022/04/17 10:36:34;;;;;;;11.82;5.80;;;;;;;;;;5029907;28;20048;-76
2022/04/17 10:39:27;;;;;;;7.70;5.38;;;;;;;;;;5054223;28;20049;-75
2022/04/17 10:42:12;;;;;;;30.75;11.27;;;;;;;;;;5053958;28;20045;-77
2022/04/17 10:45:07;;;;;;;17.48;7.13;;;;;;;;;;5060705;28;20048;-76
2022/04/17 10:48:09;;;;;;;9.82;5.07;;;;;;;;;;5053950;28;20045;-76
2022/04/17 10:50:55;;;;;;;11.23;4.97;;;;;;;;;;5053924;28;20391;-76
2022/04/17 10:54:04;;;;;;;6.85;4.55;;;;;;;;;;5053674;28;20049;-77
2022/04/17 10:56:55;;;;;;;5.80;3.47;;;;;;;;;;5053660;28;20053;-77
2022/04/17 10:59:45;;;;;;;12.05;5.68;;;;;;;;;;5051641;28;20041;-78
2022/04/17 11:02:30;;;;;;;6.97;4.63;;;;;;;;;;5053677;28;20040;-77
2022/04/17 11:06:05;;;;;;;14.35;6.28;;;;;;;;;;5053247;28;20041;-76
2022/04/17 11:08:51;;;;;;;3.97;3.08;;;;;;;;;;5053341;28;20474;-77
2022/04/17 11:11:38;;;;;;;5.25;3.58;;;;;;;;;;5053815;28;20041;-76
2022/04/17 11:14:25;;;;;;;7.13;4.25;;;;;;;;;;5060468;28;20282;-77
2022/04/17 11:17:12;;;;;;;7.88;4.10;;;;;;;;;;5052757;28;20053;-76
2022/04/17 11:19:59;;;;;;;7.30;4.95;;;;;;;;;;5052461;28;20049;-75
2022/04/17 11:22:45;;;;;;;7.60;3.47;;;;;;;;;;5059411;28;20057;-77
2022/04/17 11:25:49;;;;;;;12.05;5.82;;;;;;;;;;5052695;28;20478;-77
2022/04/17 11:28:36;;;;;;;2.58;2.28;;;;;;;;;;5054811;28;20057;-76
2022/04/17 11:31:31;;;;;;;11.30;5.63;;;;;;;;;;5053440;28;20041;-76
2022/04/17 11:34:16;;;;;;;9.18;5.70;;;;;;;;;;5053120;28;20041;-75
2022/04/17 11:37:02;;;;;;;4.35;2.88;;;;;;;;;;5052974;28;20045;-76
2022/04/17 11:39:48;;;;;;;7.55;3.75;;;;;;;;;;5060179;28;20040;-77
2022/04/17 11:42:40;;;;;;;4.97;3.90;;;;;;;;;;5053441;28;20052;-76
2022/04/17 11:45:28;;;;;;;16.02;5.07;;;;;;;;;;5052767;28;20041;-78
2022/04/17 11:48:19;;;;;;;6.68;4.40;;;;;;;;;;5053254;28;20041;-76
2022/04/17 11:51:05;;;;;;;4.53;3.28;;;;;;;;;;5059893;28;20424;-75
2022/04/17 11:53:50;;;;;;;5.75;3.72;;;;;;;;;;5053349;28;20041;-77
2022/04/17 11:56:52;;;;;;;10.43;5.43;;;;;;;;;;5057075;28;20052;-78
2022/04/17 11:59:52;;;;;;;6.65;4.80;;;;;;;;;;5058208;28;20049;-76
2022/04/17 12:02:38;;;;;;;9.52;4.28;;;;;;;;;;5058066;28;20049;-76
2022/04/17 12:05:24;;;;;;;13.18;6.75;;;;;;;;;;5057663;28;20049;-77
2022/04/17 12:08:10;;;;;;;9.88;4.90;;;;;;;;;;5063119;28;20045;-76
2022/04/17 12:10:56;;;;;;;6.22;4.00;;;;;;;;;;5057391;28;20048;-75
2022/04/17 12:13:41;;;;;;;7.32;4.22;;;;;;;;;;5071021;28;20037;-76
2022/04/17 12:16:27;;;;;;;7.38;4.45;;;;;;;;;;5070817;28;20049;-76
2022/04/17 12:19:16;;;;;;;8.18;4.85;;;;;;;;;;5057534;28;20487;-76
2022/04/17 12:22:12;;;;;;;4.03;2.63;;;;;;;;;;5057567;28;20049;-77
2022/04/17 12:24:58;;;;;;;5.43;2.78;;;;;;;;;;5056743;28;20040;-77
2022/04/17 12:27:46;;;;;;;5.97;2.83;;;;;;;;;;5055929;28;20041;-75
2022/04/17 12:30:32;;;;;;;5.57;3.75;;;;;;;;;;5057002;28;20049;-76
2022/04/17 12:33:22;;;;;;;12.25;3.50;;;;;;;;;;5063784;28;20045;-78
2022/04/17 12:36:11;;;;;;;10.52;5.88;;;;;;;;;;5056085;28;20049;-78
2022/04/17 12:38:56;;;;;;;10.90;6.50;;;;;;;;;;5057987;28;20049;-76
2022/04/17 12:41:49;;;;;;;9.02;5.38;;;;;;;;;;5057380;28;20037;-75
2022/04/17 12:44:34;;;;;;;9.55;4.10;;;;;;;;;;5062585;28;20053;-78
2022/04/17 12:47:20;;;;;;;9.27;5.18;;;;;;;;;;5056021;28;20045;-77
2022/04/17 12:50:08;;;;;;;16.17;5.18;;;;;;;;;;5058336;28;20048;-76
2022/04/17 12:52:55;;;;;;;8.50;4.75;;;;;;;;;;5057400;28;20048;-77
2022/04/17 12:55:43;;;;;;;15.82;8.30;;;;;;;;;;5057614;28;20045;-77
2022/04/17 12:58:28;;;;;;;10.40;6.47;;;;;;;;;;5058415;28;20044;-77
2022/04/17 13:01:45;;;;;;;7.63;4.80;;;;;;;;;;5057831;28;20486;-77
2022/04/17 13:04:41;;;;;;;9.52;4.18;;;;;;;;;;5063976;28;20048;-77
2022/04/17 13:07:34;;;;;;;40.88;11.20;;;;;;;;;;5056044;28;20514;-78
2022/04/17 13:10:30;;;;;;;13.38;7.35;;;;;;;;;;5066823;28;20053;-77
2022/04/17 13:13:15;;;;;;;16.02;7.53;;;;;;;;;;5055479;28;20398;-78
2022/04/17 13:16:02;;;;;;;12.27;5.63;;;;;;;;;;5055949;28;20049;-76
2022/04/17 13:18:53;;;;;;;11.23;6.00;;;;;;;;;;5062598;28;20045;-76
2022/04/17 13:21:38;;;;;;;6.85;4.63;;;;;;;;;;5055537;28;20041;-77
2022/04/17 13:24:26;;;;;;;25.95;8.90;;;;;;;;;;5055456;28;20040;-78
2022/04/17 13:27:12;;;;;;;16.52;9.35;;;;;;;;;;5055435;28;20041;-78
2022/04/17 13:29:57;;;;;;;18.45;7.60;;;;;;;;;;5055690;28;20037;-79
2022/04/17 13:32:49;;;;;;;10.80;6.60;;;;;;;;;;5055664;28;20378;-77
2022/04/17 13:35:34;;;;;;;8.95;5.32;;;;;;;;;;5055350;28;20041;-77
2022/04/17 13:38:19;;;;;;;8.00;5.05;;;;;;;;;;5053552;28;20040;-76
2022/04/17 13:41:06;;;;;;;15.10;8.07;;;;;;;;;;5056002;28;20045;-78
2022/04/17 13:43:52;;;;;;;6.50;4.22;;;;;;;;;;5055342;28;20390;-76
2022/04/17 13:46:37;;;;;;;8.60;3.55;;;;;;;;;;5057090;28;20045;-77
2022/04/17 13:49:28;;;;;;;8.85;5.28;;;;;;;;;;5056134;28;20057;-77
2022/04/17 13:52:14;;;;;;;12.48;5.70;;;;;;;;;;5055614;28;20482;-77
2022/04/17 13:55:00;;;;;;;8.63;4.90;;;;;;;;;;5055623;28;20398;-77
2022/04/17 13:57:46;;;;;;;10.27;6.57;;;;;;;;;;5055218;28;20382;-76
2022/04/17 14:00:31;;;;;;;11.00;5.30;;;;;;;;;;5055717;28;20040;-77
2022/04/17 14:03:17;;;;;;;10.10;4.95;;;;;;;;;;5057732;28;20048;-75
2022/04/17 14:06:03;;;;;;;6.78;3.95;;;;;;;;;;5055776;28;20398;-77
2022/04/17 14:08:49;;;;;;;12.82;5.38;;;;;;;;;;5055347;28;20482;-77
2022/04/17 14:11:34;;;;;;;11.80;5.93;;;;;;;;;;5054994;28;20409;-78
2022/04/17 14:14:19;;;;;;;18.48;7.65;;;;;;;;;;5060424;28;20037;-76
2022/04/17 14:17:05;;;;;;;11.93;4.38;;;;;;;;;;5054696;28;20049;-78
2022/04/17 14:19:51;;;;;;;6.68;4.70;;;;;;;;;;5053738;28;20041;-77
2022/04/17 14:22:37;;;;;;;10.02;5.75;;;;;;;;;;5055426;28;20045;-76
2022/04/17 14:25:22;;;;;;;13.07;6.30;;;;;;;;;;5054447;28;20040;-75
2022/04/17 14:28:08;;;;;;;13.93;5.85;;;;;;;;;;5064715;28;20033;-79
2022/04/17 14:30:54;;;;;;;13.32;8.32;;;;;;;;;;5074491;28;20045;-76
2022/04/17 14:33:39;;;;;;;19.40;10.57;;;;;;;;;;5058191;28;20443;-75
2022/04/17 14:36:26;;;;;;;11.27;6.13;;;;;;;;;;5054486;28;20052;-77
2022/04/17 14:39:12;;;;;;;25.20;11.57;;;;;;;;;;5057018;28;20395;-76
2022/04/17 14:45:49;;;;;;;17.50;6.78;;;;;;;;;;4973223;28;20055;-78
2022/04/17 14:48:35;;;;;;;13.82;7.07;;;;;;;;;;4975018;28;20046;-77
2022/04/17 14:51:22;;;;;;;11.95;6.35;;;;;;;;;;4974608;28;20046;-77
2022/04/17 14:54:10;;;;;;;11.82;7.75;;;;;;;;;;4980915;28;20050;-76
2022/04/17 14:56:58;;;;;;;21.02;8.82;;;;;;;;;;4975203;28;20492;-76
2022/04/17 14:59:44;;;;;;;15.27;6.80;;;;;;;;;;4980819;28;20042;-76
2022/04/17 15:02:30;;;;;;;8.80;4.90;;;;;;;;;;4974743;28;20051;-78
2022/04/17 15:05:15;;;;;;;11.07;5.88;;;;;;;;;;4979691;28;20047;-77
2022/04/17 15:08:00;;;;;;;19.02;13.10;;;;;;;;;;4981342;28;20047;-77
2022/04/17 15:10:47;;;;;;;11.70;8.02;;;;;;;;;;4975242;28;20047;-77
2022/04/17 15:13:33;;;;;;;26.90;13.70;;;;;;;;;;4973983;28;20512;-77
2022/04/17 15:16:18;;;;;;;24.20;11.75;;;;;;;;;;4974741;28;20055;-76
2022/04/17 15:19:04;;;;;;;15.10;5.95;;;;;;;;;;4974443;28;20047;-78
2022/04/17 15:21:49;;;;;;;16.85;10.07;;;;;;;;;;4974724;28;20051;-77
2022/04/17 15:24:35;;;;;;;13.68;7.82;;;;;;;;;;4974520;28;20408;-76
2022/04/17 15:27:20;;;;;;;18.83;9.32;;;;;;;;;;4973707;28;20050;-76
2022/04/17 15:30:06;;;;;;;18.35;9.60;;;;;;;;;;4980796;28;20055;-77
2022/04/17 15:32:51;;;;;;;13.10;7.63;;;;;;;;;;4974765;28;20050;-76
2022/04/17 15:35:39;;;;;;;12.95;7.07;;;;;;;;;;4974969;28;20046;-75
2022/04/17 15:38:24;;;;;;;8.45;5.63;;;;;;;;;;4974499;28;20397;-77
2022/04/17 15:41:09;;;;;;;17.25;9.60;;;;;;;;;;4974142;28;20401;-77
2022/04/17 15:50:06;;;;;;;24.45;18.13;;;;;;;;;;4974212;28;20134;-76
2022/04/17 15:52:52;;;;;;;16.95;10.43;;;;;;;;;;4974734;28;20042;-77
2022/04/17 15:55:40;;;;;;;21.85;11.90;;;;;;;;;;4974277;28;20047;-77
2022/04/17 15:58:26;;;;;;;25.95;17.13;;;;;;;;;;4980714;28;20051;-75
2022/04/17 16:01:12;;;;;;;27.35;14.88;;;;;;;;;;4974833;28;20055;-75
2022/04/17 16:03:57;;;;;;;25.70;16.15;;;;;;;;;;4980426;28;20488;-75
2022/04/17 16:06:43;;;;;;;24.92;14.30;;;;;;;;;;4981224;28;20051;-74
2022/04/17 16:09:29;;;;;;;29.48;17.15;;;;;;;;;;4973744;28;20392;-78
2022/04/17 16:12:16;;;;;;;40.42;22.25;;;;;;;;;;4974423;28;20042;-77
2022/04/17 16:15:03;;;;;;;29.73;18.95;;;;;;;;;;4974274;28;20039;-77
2022/04/17 16:17:49;;;;;;;33.50;18.38;;;;;;;;;;4965741;28;20039;-75
2022/04/17 16:20:33;;;;;;;44.15;21.85;;;;;;;;;;4981162;28;20473;-78
2022/04/17 16:23:19;;;;;;;30.15;17.90;;;;;;;;;;4980489;28;20043;-75
2022/04/17 16:26:06;;;;;;;33.00;20.80;;;;;;;;;;4980427;28;20046;-76
2022/04/17 16:28:51;;;;;;;37.95;22.73;;;;;;;;;;4974578;28;20481;-76
2022/04/17 16:31:37;;;;;;;42.92;25.67;;;;;;;;;;4973897;28;20481;-78
2022/04/17 16:34:22;;;;;;;39.22;25.75;;;;;;;;;;4981289;28;20039;-76
2022/04/17 16:37:09;;;;;;;47.10;27.42;;;;;;;;;;4974448;28;20497;-78
2022/04/17 16:39:56;;;;;;;34.28;19.63;;;;;;;;;;4980375;28;20046;-76
2022/04/17 16:42:42;;;;;;;31.42;17.52;;;;;;;;;;4987092;28;20046;-75
2022/04/17 16:45:28;;;;;;;25.55;15.20;;;;;;;;;;4997702;28;20054;-76
2022/04/17 16:48:13;;;;;;;35.70;18.65;;;;;;;;;;4984183;28;20046;-76
2022/04/17 16:50:59;;;;;;;35.50;19.73;;;;;;;;;;4977942;28;20472;-77
2022/04/17 16:53:44;;;;;;;58.55;27.17;;;;;;;;;;4977006;28;20054;-77
2022/04/17 16:56:30;;;;;;;71.55;27.35;;;;;;;;;;4977216;28;20047;-77
2022/04/17 16:59:16;;;;;;;31.63;16.08;;;;;;;;;;4977039;28;20496;-77